createdAt,value
2018-09-28T00:00:51.317Z,0.94
2018-09-28T00:03:20.600Z,0.92
2018-09-28T00:05:49.483Z,0.92
2018-09-28T00:08:18.436Z,0.89
2018-09-28T00:10:47.471Z,0.83
2018-09-28T00:13:16.127Z,0.84
2018-09-28T00:15:45.107Z,0.78
2018-09-28T00:18:14.131Z,0.74
2018-09-28T00:20:43.133Z,0.71
2018-09-28T00:23:11.882Z,0.74
2018-09-28T00:25:40.932Z,0.68
2018-09-28T00:28:09.978Z,0.69
2018-09-28T00:30:38.841Z,0.69
2018-09-28T00:33:07.927Z,0.66
2018-09-28T00:35:36.726Z,0.66
2018-09-28T00:38:05.546Z,0.68
2018-09-28T00:40:34.336Z,0.66
2018-09-28T00:43:03.364Z,0.66
2018-09-28T00:45:32.178Z,0.65
2018-09-28T00:48:01.324Z,0.63
2018-09-28T00:50:30.311Z,0.59
2018-09-28T00:52:59.284Z,0.58
2018-09-28T00:55:28.164Z,0.60
2018-09-28T00:57:57.007Z,0.60
2018-09-28T01:00:25.946Z,0.60
2018-09-28T01:02:54.991Z,0.55
2018-09-28T01:05:24.395Z,0.52
2018-09-28T01:07:53.883Z,0.45
2018-09-28T01:10:22.657Z,0.45
2018-09-28T01:12:51.701Z,0.41
2018-09-28T01:15:20.494Z,0.38
2018-09-28T01:17:49.249Z,0.42
2018-09-28T01:20:18.169Z,0.41
2018-09-28T01:22:47.223Z,0.35
2018-09-28T01:25:16.236Z,0.36
2018-09-28T01:27:45.125Z,0.41
2018-09-28T01:30:14.014Z,0.42
2018-09-28T01:32:43.241Z,0.38
2018-09-28T01:35:12.212Z,0.42
2018-09-28T01:37:41.214Z,0.35
2018-09-28T01:40:10.313Z,0.34
2018-09-28T01:42:39.251Z,0.29
2018-09-28T01:45:08.351Z,0.28
2018-09-28T01:47:37.184Z,0.33
2018-09-28T01:50:06.540Z,0.34
2018-09-28T01:52:35.293Z,0.35
2018-09-28T01:55:04.226Z,0.36
2018-09-28T01:57:33.350Z,0.34
2018-09-28T02:00:02.439Z,0.33
2018-09-28T02:02:31.383Z,0.32
2018-09-28T02:05:00.249Z,0.33
2018-09-28T02:07:29.195Z,0.28
2018-09-28T02:09:58.215Z,0.22
2018-09-28T02:12:27.378Z,0.21
2018-09-28T02:14:56.423Z,0.23
2018-09-28T02:17:25.310Z,0.20
2018-09-28T02:19:54.244Z,0.24
2018-09-28T02:22:23.283Z,0.23
2018-09-28T02:24:52.293Z,0.22
2018-09-28T02:27:21.301Z,0.22
2018-09-28T02:29:50.225Z,0.18
2018-09-28T02:32:19.181Z,0.18
2018-09-28T02:34:48.288Z,0.14
2018-09-28T02:37:17.506Z,0.13
2018-09-28T02:39:46.604Z,0.09
2018-09-28T02:42:15.788Z,0.08
2018-09-28T02:44:44.756Z,0.12
2018-09-28T02:47:13.988Z,0.12
2018-09-28T02:49:43.015Z,0.11
2018-09-28T02:52:12.074Z,0.08
2018-09-28T02:54:41.241Z,0.07
2018-09-28T02:57:10.335Z,0.07
2018-09-28T02:59:39.313Z,0.07
2018-09-28T03:02:08.257Z,0.06
2018-09-28T03:04:37.677Z,0.04
2018-09-28T03:07:07.000Z,0.06
2018-09-28T03:09:36.296Z,0.05
2018-09-28T03:12:05.237Z,0.06
2018-09-28T03:14:34.113Z,0.06
2018-09-28T03:17:02.996Z,0.03
2018-09-28T03:19:31.728Z,0.04
2018-09-28T03:22:00.591Z,0.04
2018-09-28T03:24:29.344Z,0.02
2018-09-28T03:26:58.299Z,0.01
2018-09-28T03:29:27.367Z,0.02
2018-09-28T03:31:56.407Z,-0.06
2018-09-28T03:34:25.586Z,-0.09
2018-09-28T03:36:54.553Z,-0.11
2018-09-28T03:39:23.394Z,-0.15
2018-09-28T03:41:52.088Z,-0.14
2018-09-28T03:44:21.248Z,-0.13
2018-09-28T03:46:50.180Z,-0.14
2018-09-28T03:49:19.218Z,-0.13
2018-09-28T03:51:47.982Z,-0.12
2018-09-28T03:54:17.215Z,-0.17
2018-09-28T03:56:46.339Z,-0.15
2018-09-28T03:59:15.232Z,-0.24
2018-09-28T04:01:44.292Z,-0.10
2018-09-28T04:04:13.141Z,-0.09
2018-09-28T04:06:41.991Z,-0.08
2018-09-28T04:09:12.149Z,-0.11
2018-09-28T04:11:41.350Z,-0.15
2018-09-28T04:14:10.116Z,-0.14
2018-09-28T04:16:38.946Z,-0.17
2018-09-28T04:19:08.260Z,-0.19
2018-09-28T04:21:37.507Z,-0.18
2018-09-28T04:24:06.592Z,-0.15
2018-09-28T04:26:35.619Z,-0.12
2018-09-28T04:29:04.640Z,-0.12
2018-09-28T04:31:33.406Z,-0.14
2018-09-28T04:34:02.206Z,-0.12
2018-09-28T04:36:32.097Z,-0.11
2018-09-28T04:39:01.032Z,-0.13
2018-09-28T04:41:29.880Z,-0.10
2018-09-28T04:43:58.842Z,-0.09
2018-09-28T04:46:27.661Z,-0.08
2018-09-28T04:48:56.659Z,-0.03
2018-09-28T04:51:25.813Z,-0.04
2018-09-28T04:53:54.565Z,0.02
2018-09-28T04:56:23.538Z,0.09
2018-09-28T04:58:52.425Z,0.13
2018-09-28T05:01:21.126Z,0.17
2018-09-28T05:03:50.379Z,0.16
2018-09-28T05:06:19.293Z,0.22
2018-09-28T05:08:47.992Z,0.27
2018-09-28T05:11:17.124Z,0.43
2018-09-28T05:13:46.044Z,1.38
2018-09-28T05:16:15.267Z,1.04
2018-09-28T05:18:44.518Z,0.83
2018-09-28T05:21:13.693Z,0.76
2018-09-28T05:23:42.553Z,0.77
2018-09-28T05:26:12.545Z,0.80
2018-09-28T05:28:41.543Z,0.82
2018-09-28T05:31:10.554Z,0.88
2018-09-28T05:33:39.564Z,0.91
2018-09-28T05:36:08.634Z,0.91
2018-09-28T05:38:37.585Z,0.96
2018-09-28T05:41:06.638Z,0.99
2018-09-28T05:43:35.605Z,1.08
2018-09-28T05:46:04.538Z,1.08
2018-09-28T05:48:33.743Z,1.01
2018-09-28T05:51:02.787Z,0.97
2018-09-28T05:53:31.989Z,1.02
2018-09-28T05:56:01.077Z,1.09
2018-09-28T05:58:35.195Z,1.14
2018-09-28T06:01:09.319Z,1.20
2018-09-28T06:04:40.901Z,1.24
2018-09-28T06:07:10.278Z,1.20
2018-09-28T06:09:39.193Z,1.27
2018-09-28T06:12:08.228Z,1.30
2018-09-28T06:14:37.040Z,1.30
2018-09-28T06:17:06.141Z,1.27
2018-09-28T06:19:35.119Z,1.26
2018-09-28T06:22:04.006Z,1.24
2018-09-28T06:24:32.780Z,1.27
2018-09-28T06:27:01.420Z,1.31
2018-09-28T06:29:30.535Z,1.40
2018-09-28T06:31:59.414Z,1.43
2018-09-28T06:34:28.264Z,1.42
2018-09-28T06:36:57.048Z,1.40
2018-09-28T06:39:25.920Z,1.41
2018-09-28T06:41:54.846Z,1.39
2018-09-28T06:44:23.766Z,1.41
2018-09-28T06:46:52.467Z,1.44
2018-09-28T06:49:21.215Z,1.53
2018-09-28T06:51:50.081Z,1.56
2018-09-28T06:54:18.812Z,1.59
2018-09-28T06:56:47.832Z,1.60
2018-09-28T06:59:16.820Z,1.62
2018-09-28T07:01:45.489Z,1.69
2018-09-28T07:04:14.469Z,1.77
2018-09-28T07:06:43.645Z,1.83
2018-09-28T07:09:13.489Z,1.93
2018-09-28T07:11:42.569Z,2.08
2018-09-28T07:14:11.821Z,2.26
2018-09-28T07:16:41.781Z,2.43
2018-09-28T07:19:10.932Z,2.61
2018-09-28T07:21:39.873Z,2.64
2018-09-28T07:24:09.211Z,2.67
2018-09-28T07:26:38.052Z,2.74
2018-09-28T07:29:07.118Z,2.84
2018-09-28T07:31:36.190Z,2.87
2018-09-28T07:34:04.986Z,2.99
2018-09-28T07:36:34.348Z,3.13
2018-09-28T07:39:03.500Z,3.27
2018-09-28T07:41:32.534Z,3.36
2018-09-28T07:44:01.714Z,3.42
2018-09-28T07:46:37.164Z,3.43
2018-09-28T07:49:06.582Z,3.54
2018-09-28T07:51:36.004Z,3.71
2018-09-28T07:54:04.949Z,3.94
2018-09-28T07:56:33.909Z,4.37
2018-09-28T07:59:02.933Z,4.88
2018-09-28T08:01:32.020Z,5.13
2018-09-28T08:04:01.047Z,5.52
2018-09-28T08:06:30.640Z,5.91
2018-09-28T08:08:59.532Z,5.77
2018-09-28T08:11:28.386Z,5.68
2018-09-28T08:13:57.462Z,5.69
2018-09-28T08:16:26.361Z,5.70
2018-09-28T08:18:55.397Z,6.24
2018-09-28T08:21:24.490Z,6.87
2018-09-28T08:23:53.521Z,6.85
2018-09-28T08:26:22.465Z,6.61
2018-09-28T08:28:51.916Z,6.47
2018-09-28T08:31:21.037Z,6.63
2018-09-28T08:33:49.861Z,6.54
2018-09-28T08:36:18.871Z,6.31
2018-09-28T08:38:47.889Z,6.45
2018-09-28T08:41:16.714Z,6.28
2018-09-28T08:43:46.142Z,6.19
2018-09-28T08:46:15.274Z,6.24
2018-09-28T08:48:44.411Z,6.52
2018-09-28T08:51:13.872Z,6.97
2018-09-28T08:53:43.052Z,7.17
2018-09-28T08:56:12.302Z,7.70
2018-09-28T08:58:41.159Z,8.32
2018-09-28T09:01:11.048Z,8.35
2018-09-28T09:03:40.246Z,8.88
2018-09-28T09:06:09.480Z,9.20
2018-09-28T09:08:38.312Z,9.32
2018-09-28T09:11:07.255Z,8.83
2018-09-28T09:13:36.270Z,8.62
2018-09-28T09:16:05.255Z,8.13
2018-09-28T09:18:34.281Z,7.51
2018-09-28T09:21:03.288Z,7.12
2018-09-28T09:23:32.620Z,6.80
2018-09-28T09:26:01.602Z,6.71
2018-09-28T09:28:30.760Z,6.75
2018-09-28T09:30:59.722Z,6.75
2018-09-28T09:33:28.755Z,6.69
2018-09-28T09:35:57.627Z,6.53
2018-09-28T09:38:26.692Z,6.53
2018-09-28T09:40:55.495Z,6.53
2018-09-28T09:43:24.726Z,6.45
2018-09-28T09:45:54.071Z,6.40
2018-09-28T09:48:22.998Z,6.69
2018-09-28T09:50:52.155Z,7.21
2018-09-28T09:53:21.302Z,7.59
2018-09-28T09:55:50.320Z,8.15
2018-09-28T09:58:19.443Z,8.45
2018-09-28T10:00:53.715Z,8.34
2018-09-28T10:03:27.733Z,8.23
2018-09-28T10:05:56.874Z,8.33
2018-09-28T10:08:26.101Z,8.48
2018-09-28T10:10:54.967Z,8.81
2018-09-28T10:13:24.268Z,9.07
2018-09-28T10:15:53.439Z,9.67
2018-09-28T10:18:22.820Z,10.22
2018-09-28T10:20:52.096Z,10.40
2018-09-28T10:23:21.127Z,10.33
2018-09-28T10:25:50.045Z,9.97
2018-09-28T10:28:19.133Z,9.92
2018-09-28T10:30:48.172Z,9.62
2018-09-28T10:33:17.111Z,9.11
2018-09-28T10:35:45.859Z,8.95
2018-09-28T10:38:14.751Z,8.96
2018-09-28T10:40:43.713Z,8.83
2018-09-28T10:43:12.641Z,8.61
2018-09-28T10:45:41.627Z,8.47
2018-09-28T10:48:10.708Z,8.44
2018-09-28T10:50:39.508Z,8.34
2018-09-28T10:53:08.576Z,8.35
2018-09-28T10:55:37.373Z,8.42
2018-09-28T10:58:06.371Z,8.50
2018-09-28T11:00:35.371Z,8.44
2018-09-28T11:03:04.167Z,8.53
2018-09-28T11:05:33.129Z,8.59
2018-09-28T11:08:02.018Z,8.62
2018-09-28T11:10:30.977Z,8.68
2018-09-28T11:13:00.007Z,8.80
2018-09-28T11:15:28.853Z,8.89
2018-09-28T11:17:57.639Z,9.12
2018-09-28T11:20:26.817Z,9.74
2018-09-28T11:22:55.599Z,10.61
2018-09-28T11:25:24.856Z,11.30
2018-09-28T11:27:53.902Z,11.32
2018-09-28T11:30:22.661Z,11.11
2018-09-28T11:32:51.778Z,11.09
2018-09-28T11:35:21.638Z,10.86
2018-09-28T11:37:50.845Z,11.08
2018-09-28T11:40:19.934Z,11.41
2018-09-28T11:42:48.905Z,11.74
2018-09-28T11:45:18.353Z,11.53
2018-09-28T11:47:47.438Z,11.24
2018-09-28T11:50:16.617Z,11.00
2018-09-28T11:52:45.790Z,11.05
2018-09-28T11:55:14.965Z,11.31
2018-09-28T11:57:44.070Z,11.81
2018-09-28T12:00:13.324Z,12.20
2018-09-28T12:02:42.430Z,12.67
2018-09-28T12:05:11.589Z,12.60
2018-09-28T12:07:40.835Z,12.26
2018-09-28T12:13:41.827Z,12.45
2018-09-28T12:16:10.638Z,12.71
2018-09-28T12:18:39.696Z,12.61
2018-09-28T12:21:08.672Z,12.47
2018-09-28T12:23:37.679Z,11.99
2018-09-28T12:26:06.419Z,11.57
2018-09-28T12:28:35.402Z,11.14
2018-09-28T12:31:04.594Z,11.06
2018-09-28T12:33:33.857Z,10.61
2018-09-28T12:36:02.979Z,10.21
2018-09-28T12:38:31.847Z,10.18
2018-09-28T12:41:00.792Z,10.19
2018-09-28T12:43:35.030Z,10.08
2018-09-28T12:45:58.919Z,10.12
2018-09-28T12:48:27.642Z,10.06
2018-09-28T12:50:56.526Z,10.14
2018-09-28T12:53:26.144Z,10.06
2018-09-28T12:55:55.142Z,10.05
2018-09-28T12:58:24.147Z,9.91
2018-09-28T13:00:53.396Z,9.91
2018-09-28T13:03:22.479Z,9.94
2018-09-28T13:05:51.541Z,9.89
2018-09-28T13:08:20.325Z,9.69
2018-09-28T13:10:49.558Z,9.59
2018-09-28T13:13:18.784Z,9.61
2018-09-28T13:15:48.025Z,9.55
2018-09-28T13:18:17.321Z,9.49
2018-09-28T13:20:46.163Z,9.43
2018-09-28T13:23:14.901Z,9.36
2018-09-28T13:25:43.764Z,9.29
2018-09-28T13:28:12.537Z,9.26
2018-09-28T13:30:41.442Z,9.21
2018-09-28T13:33:10.373Z,9.17
2018-09-28T13:35:39.486Z,9.27
2018-09-28T13:38:08.432Z,9.31
2018-09-28T13:40:37.271Z,9.29
2018-09-28T13:43:06.215Z,9.36
2018-09-28T13:45:35.544Z,9.61
2018-09-28T13:48:04.478Z,9.60
2018-09-28T13:50:33.512Z,9.57
2018-09-28T13:53:02.272Z,9.53
2018-09-28T13:55:31.273Z,9.46
2018-09-28T13:58:00.000Z,9.42
2018-09-28T14:00:28.805Z,9.79
2018-09-28T14:02:57.767Z,10.56
2018-09-28T14:05:27.220Z,11.93
2018-09-28T14:07:55.924Z,13.36
2018-09-28T14:10:24.753Z,14.53
2018-09-28T14:12:53.830Z,15.03
2018-09-28T14:15:22.771Z,15.31
2018-09-28T14:17:51.826Z,15.70
2018-09-28T14:20:20.890Z,15.85
2018-09-28T14:22:50.247Z,15.65
2018-09-28T14:25:19.015Z,15.61
2018-09-28T14:27:47.747Z,15.46
2018-09-28T14:30:16.676Z,15.16
2018-09-28T14:32:45.547Z,14.69
2018-09-28T14:35:14.572Z,14.12
2018-09-28T14:37:43.300Z,13.41
2018-09-28T14:40:12.274Z,12.92
2018-09-28T14:42:41.461Z,12.48
2018-09-28T14:45:10.414Z,12.12
2018-09-28T14:47:39.211Z,11.86
2018-09-28T14:50:08.224Z,11.59
2018-09-28T14:52:37.129Z,11.41
2018-09-28T14:55:06.282Z,11.44
2018-09-28T14:57:35.827Z,11.15
2018-09-28T15:00:05.080Z,10.85
2018-09-28T15:02:33.873Z,10.80
2018-09-28T15:05:02.910Z,10.54
2018-09-28T15:07:31.860Z,10.62
2018-09-28T15:10:00.968Z,10.48
2018-09-28T15:12:29.990Z,10.40
2018-09-28T15:14:58.864Z,10.33
2018-09-28T15:17:28.008Z,10.21
2018-09-28T15:19:57.069Z,10.13
2018-09-28T15:22:26.188Z,10.08
2018-09-28T15:24:55.256Z,10.01
2018-09-28T15:27:24.256Z,9.89
2018-09-28T15:29:53.149Z,9.80
2018-09-28T15:32:21.995Z,9.68
2018-09-28T15:34:51.173Z,9.56
2018-09-28T15:37:21.410Z,9.45
2018-09-28T15:39:50.313Z,9.29
2018-09-28T15:42:19.513Z,9.14
2018-09-28T15:44:48.570Z,8.97
2018-09-28T15:47:17.594Z,8.79
2018-09-28T15:49:46.666Z,8.61
2018-09-28T15:52:15.800Z,8.43
2018-09-28T15:54:44.804Z,8.26
2018-09-28T15:57:13.860Z,8.12
2018-09-28T15:59:42.760Z,7.98
2018-09-28T16:02:11.936Z,7.86
2018-09-28T16:04:40.887Z,7.70
2018-09-28T16:07:09.883Z,7.58
2018-09-28T16:09:38.992Z,7.46
2018-09-28T16:12:07.960Z,7.34
2018-09-28T16:14:36.990Z,7.21
2018-09-28T16:17:05.689Z,7.06
2018-09-28T16:19:35.083Z,6.96
2018-09-28T16:22:03.943Z,6.83
2018-09-28T16:24:32.761Z,6.73
2018-09-28T16:27:03.072Z,6.63
2018-09-28T16:29:32.030Z,6.50
2018-09-28T16:32:00.872Z,6.40
2018-09-28T16:34:30.183Z,6.21
2018-09-28T16:36:59.201Z,6.10
2018-09-28T16:39:28.125Z,6.03
2018-09-28T16:41:56.763Z,5.93
2018-09-28T16:44:25.800Z,5.83
2018-09-28T16:46:54.576Z,5.73
2018-09-28T16:49:23.597Z,5.66
2018-09-28T16:51:52.461Z,5.59
2018-09-28T16:54:21.369Z,5.51
2018-09-28T16:56:50.423Z,5.42
2018-09-28T16:59:19.398Z,5.34
2018-09-28T17:01:48.342Z,5.22
2018-09-28T17:04:17.255Z,5.14
2018-09-28T17:06:46.347Z,5.06
2018-09-28T17:09:15.181Z,5.00
2018-09-28T17:11:44.236Z,4.93
2018-09-28T17:14:12.970Z,4.84
2018-09-28T17:16:41.941Z,4.77
2018-09-28T17:19:10.770Z,4.69
2018-09-28T17:21:39.576Z,4.61
2018-09-28T17:24:08.236Z,4.54
2018-09-28T17:26:37.270Z,4.45
2018-09-28T17:29:06.366Z,4.37
2018-09-28T17:31:35.821Z,4.30
2018-09-28T17:34:05.037Z,4.25
2018-09-28T17:36:34.017Z,4.19
2018-09-28T17:39:02.886Z,4.12
2018-09-28T17:41:31.867Z,4.09
2018-09-28T17:44:00.817Z,4.02
2018-09-28T17:46:30.471Z,3.97
2018-09-28T17:48:59.791Z,3.90
2018-09-28T17:51:29.612Z,3.86
2018-09-28T17:53:58.895Z,3.79
2018-09-28T17:56:27.674Z,3.74
2018-09-28T17:58:56.965Z,3.69
2018-09-28T18:01:26.038Z,3.65
2018-09-28T18:03:55.631Z,3.58
2018-09-28T18:06:24.824Z,3.54
2018-09-28T18:08:54.180Z,3.52
2018-09-28T18:11:22.836Z,3.47
2018-09-28T18:13:51.974Z,3.44
2018-09-28T18:16:21.639Z,3.38
2018-09-28T18:18:50.776Z,3.34
2018-09-28T18:21:21.498Z,3.30
2018-09-28T18:23:50.404Z,3.26
2018-09-28T18:26:20.209Z,3.22
2018-09-28T18:28:49.630Z,3.20
2018-09-28T18:31:18.680Z,3.15
2018-09-28T18:33:48.751Z,3.09
2018-09-28T18:36:20.448Z,3.03
2018-09-28T18:38:49.333Z,2.98
2018-09-28T18:41:18.431Z,2.92
2018-09-28T18:43:49.577Z,2.89
2018-09-28T18:46:18.923Z,2.85
2018-09-28T18:48:47.867Z,2.82
2018-09-28T18:51:16.864Z,2.76
2018-09-28T18:53:45.794Z,2.69
2018-09-28T18:56:15.877Z,2.65
2018-09-28T18:58:46.313Z,2.62
2018-09-28T19:01:15.194Z,2.59
2018-09-28T19:03:44.206Z,2.57
2018-09-28T19:06:13.566Z,2.56
2018-09-28T19:08:42.850Z,2.50
2018-09-28T19:11:12.109Z,2.47
2018-09-28T19:13:41.395Z,2.46
2018-09-28T19:16:10.387Z,2.44
2018-09-28T19:18:39.715Z,2.39
2018-09-28T19:21:08.794Z,2.33
2018-09-28T19:23:38.206Z,2.31
2018-09-28T19:26:07.101Z,1.60
2018-09-28T19:28:35.930Z,2.25
2018-09-28T19:31:04.927Z,2.24
2018-09-28T19:33:34.101Z,2.16
2018-09-28T19:36:03.049Z,2.15
2018-09-28T19:38:32.016Z,2.12
2018-09-28T19:41:00.854Z,2.12
2018-09-28T19:43:29.982Z,2.08
2018-09-28T19:46:30.082Z,2.05
2018-09-28T19:48:59.069Z,2.02
2018-09-28T19:51:28.068Z,2.02
2018-09-28T19:53:56.896Z,1.98
2018-09-28T19:56:25.857Z,1.97
2018-09-28T19:58:55.287Z,1.94
2018-09-28T20:01:24.450Z,1.93
2018-09-28T20:03:53.388Z,1.90
2018-09-28T20:06:22.858Z,1.85
2018-09-28T20:08:52.063Z,1.87
2018-09-28T20:11:21.049Z,1.88
2018-09-28T20:13:50.092Z,1.85
2018-09-28T20:16:19.059Z,1.82
2018-09-28T20:18:47.908Z,1.80
2018-09-28T20:21:16.961Z,1.78
2018-09-28T20:23:45.807Z,1.75
2018-09-28T20:26:14.599Z,1.72
2018-09-28T20:28:44.049Z,1.67
2018-09-28T20:31:12.858Z,1.67
2018-09-28T20:33:41.720Z,1.66
2018-09-28T20:36:10.921Z,1.64
2018-09-28T20:38:39.883Z,1.61
2018-09-28T20:41:09.828Z,1.62
2018-09-28T20:43:38.947Z,1.62
2018-09-28T20:46:08.018Z,1.62
2018-09-28T20:48:37.074Z,1.65
2018-09-28T20:51:06.329Z,1.67
2018-09-28T20:53:35.494Z,1.68
2018-09-28T20:56:04.544Z,1.67
2018-09-28T20:58:33.273Z,1.67
2018-09-28T21:01:02.117Z,1.68
2018-09-28T21:03:31.191Z,1.66
2018-09-28T21:06:00.457Z,1.67
2018-09-28T21:08:29.450Z,1.66
2018-09-28T21:10:58.506Z,1.67
2018-09-28T21:13:27.507Z,1.65
2018-09-28T21:15:56.611Z,1.67
2018-09-28T21:18:25.790Z,1.66
2018-09-28T21:20:54.947Z,1.64
2018-09-28T21:23:24.049Z,1.64
2018-09-28T21:25:53.033Z,1.65
2018-09-28T21:28:22.137Z,1.60
2018-09-28T21:30:51.237Z,1.58
2018-09-28T21:33:20.399Z,1.57
2018-09-28T21:35:50.122Z,1.53
2018-09-28T21:38:19.468Z,1.49
2018-09-28T21:40:48.241Z,1.44
2018-09-28T21:43:17.370Z,1.40
2018-09-28T21:45:46.220Z,1.34
2018-09-28T21:48:15.351Z,1.30
2018-09-28T21:50:44.030Z,1.27
2018-09-28T21:53:13.015Z,1.22
2018-09-28T21:55:42.090Z,1.19
2018-09-28T21:58:10.959Z,1.16
2018-09-28T22:00:40.078Z,1.13
2018-09-28T22:03:09.488Z,1.10
2018-09-28T22:05:38.596Z,1.02
2018-09-28T22:08:07.498Z,0.99
2018-09-28T22:10:36.202Z,0.94
2018-09-28T22:13:05.040Z,0.91
2018-09-28T22:15:35.116Z,0.88
2018-09-28T22:18:04.205Z,0.82
2018-09-28T22:20:33.142Z,0.79
2018-09-28T22:23:02.481Z,0.75
2018-09-28T22:25:32.581Z,0.76
2018-09-28T22:28:01.661Z,0.75
2018-09-28T22:30:30.585Z,0.72
2018-09-28T22:32:59.643Z,0.71
2018-09-28T22:35:28.573Z,0.69
2018-09-28T22:37:57.457Z,0.65
2018-09-28T22:40:26.557Z,0.63
2018-09-28T22:42:55.445Z,0.60
2018-09-28T22:45:24.473Z,0.61
2018-09-28T22:47:53.471Z,0.56
2018-09-28T22:50:22.555Z,0.54
2018-09-28T22:52:51.404Z,0.51
2018-09-28T22:55:20.426Z,0.47
2018-09-28T22:57:49.729Z,0.45
2018-09-28T23:00:18.677Z,0.43
2018-09-28T23:02:47.771Z,0.43
2018-09-28T23:05:16.712Z,0.40
2018-09-28T23:07:45.607Z,0.29
2018-09-28T23:10:14.571Z,0.22
2018-09-28T23:12:43.336Z,0.21
2018-09-28T23:15:12.187Z,0.20
2018-09-28T23:17:41.174Z,0.12
2018-09-28T23:20:10.341Z,0.12
2018-09-28T23:22:39.188Z,0.12
2018-09-28T23:25:07.925Z,0.12
2018-09-28T23:27:36.845Z,0.11
2018-09-28T23:30:06.066Z,0.06
2018-09-28T23:32:35.191Z,-0.06
2018-09-28T23:35:04.091Z,-0.14
2018-09-28T23:37:32.863Z,-0.13
2018-09-28T23:40:01.578Z,-0.12
2018-09-28T23:42:30.435Z,-0.09
2018-09-28T23:44:59.557Z,-0.09
2018-09-28T23:47:28.623Z,-0.10
2018-09-28T23:49:57.525Z,-0.10
2018-09-28T23:52:26.547Z,-0.11
2018-09-28T23:54:55.402Z,-0.13
2018-09-28T23:57:24.179Z,-0.19
2018-09-28T23:59:53.168Z,-0.26
